sensor_id;sensor_type;location;lat;lon;timestamp;pressure;altitude;pressure_sealevel;temperature;humidity
59104;BME280;51449;51.676;5.812;2024-03-08T00:01:17;101778.75;;;4.64;70.23
59104;BME280;51449;51.676;5.812;2024-03-08T00:06:13;101775.75;;;4.65;69.81
59104;BME280;51449;51.676;5.812;2024-03-08T00:08:35;101775.47;;;4.62;70.11
59104;BME280;51449;51.676;5.812;2024-03-08T00:10:57;101776.56;;;4.61;69.89
59104;BME280;51449;51.676;5.812;2024-03-08T00:13:19;101767.56;;;4.60;69.86
59104;BME280;51449;51.676;5.812;2024-03-08T00:15:41;101771.38;;;4.59;69.78
59104;BME280;51449;51.676;5.812;2024-03-08T00:18:03;101770.81;;;4.52;70.05
59104;BME280;51449;51.676;5.812;2024-03-08T00:20:27;101768.91;;;4.47;69.88
59104;BME280;51449;51.676;5.812;2024-03-08T00:22:49;101766.16;;;4.42;69.75
59104;BME280;51449;51.676;5.812;2024-03-08T00:25:12;101768.34;;;4.40;70.04
59104;BME280;51449;51.676;5.812;2024-03-08T00:27:35;101765.03;;;4.38;69.77
59104;BME280;51449;51.676;5.812;2024-03-08T00:29:58;101763.13;;;4.34;70.05
59104;BME280;51449;51.676;5.812;2024-03-08T00:32:19;101759.31;;;4.35;70.18
59104;BME280;51449;51.676;5.812;2024-03-08T00:34:42;101757.09;;;4.32;69.95
59104;BME280;51449;51.676;5.812;2024-03-08T00:37:05;101759.31;;;4.29;69.91
59104;BME280;51449;51.676;5.812;2024-03-08T00:39:27;101746.19;;;4.32;69.87
59104;BME280;51449;51.676;5.812;2024-03-08T00:41:49;101757.41;;;4.35;69.57
59104;BME280;51449;51.676;5.812;2024-03-08T00:44:11;101747.31;;;4.36;69.80
59104;BME280;51449;51.676;5.812;2024-03-08T00:46:32;101746.19;;;4.32;69.56
59104;BME280;51449;51.676;5.812;2024-03-08T00:48:55;101742.94;;;4.29;69.82
59104;BME280;51449;51.676;5.812;2024-03-08T00:51:18;101739.66;;;4.27;69.65
59104;BME280;51449;51.676;5.812;2024-03-08T00:53:40;101735.56;;;4.25;69.91
59104;BME280;51449;51.676;5.812;2024-03-08T00:56:02;101734.19;;;4.22;69.83
59104;BME280;51449;51.676;5.812;2024-03-08T00:58:24;101739.91;;;4.16;69.73
59104;BME280;51449;51.676;5.812;2024-03-08T01:00:46;101724.34;;;4.16;69.72
59104;BME280;51449;51.676;5.812;2024-03-08T01:03:07;101721.06;;;4.14;69.77
59104;BME280;51449;51.676;5.812;2024-03-08T01:05:30;101720.53;;;4.12;69.58
59104;BME280;51449;51.676;5.812;2024-03-08T01:07:51;101719.69;;;4.06;69.60
59104;BME280;51449;51.676;5.812;2024-03-08T01:10:13;101715.31;;;4.05;69.70
59104;BME280;51449;51.676;5.812;2024-03-08T01:12:35;101715.31;;;4.05;69.63
59104;BME280;51449;51.676;5.812;2024-03-08T01:14:57;101709.56;;;4.02;69.46
59104;BME280;51449;51.676;5.812;2024-03-08T01:17:20;101707.94;;;4.01;69.74
59104;BME280;51449;51.676;5.812;2024-03-08T01:19:42;101703.56;;;4.00;69.83
59104;BME280;51449;51.676;5.812;2024-03-08T01:22:06;101701.38;;;3.97;69.61
59104;BME280;51449;51.676;5.812;2024-03-08T01:24:29;101698.66;;;3.97;69.52
59104;BME280;51449;51.676;5.812;2024-03-08T01:26:51;101695.09;;;3.91;69.58
59104;BME280;51449;51.676;5.812;2024-03-08T01:29:13;101693.72;;;3.89;69.75
59104;BME280;51449;51.676;5.812;2024-03-08T01:31:35;101690.44;;;3.86;69.56
59104;BME280;51449;51.676;5.812;2024-03-08T01:33:58;101690.97;;;3.83;69.76
59104;BME280;51449;51.676;5.812;2024-03-08T01:36:21;101683.34;;;3.80;69.85
59104;BME280;51449;51.676;5.812;2024-03-08T01:38:43;101688.81;;;3.80;69.58
59104;BME280;51449;51.676;5.812;2024-03-08T01:41:05;101687.16;;;3.79;69.54
59104;BME280;51449;51.676;5.812;2024-03-08T01:43:28;101687.97;;;3.80;69.76
59104;BME280;51449;51.676;5.812;2024-03-08T01:45:51;101691.78;;;3.79;69.27
59104;BME280;51449;51.676;5.812;2024-03-08T01:48:15;101687.16;;;3.79;69.75
59104;BME280;51449;51.676;5.812;2024-03-08T01:50:39;101677.91;;;3.80;69.43
59104;BME280;51449;51.676;5.812;2024-03-08T01:53:03;101672.97;;;3.77;69.46
59104;BME280;51449;51.676;5.812;2024-03-08T01:55:26;101673.78;;;3.78;69.45
59104;BME280;51449;51.676;5.812;2024-03-08T01:57:48;101677.59;;;3.77;69.63
59104;BME280;51449;51.676;5.812;2024-03-08T02:00:11;101673.50;;;3.74;69.47
59104;BME280;51449;51.676;5.812;2024-03-08T02:02:33;101680.56;;;3.75;69.42
59104;BME280;51449;51.676;5.812;2024-03-08T02:04:56;101666.94;;;3.75;69.47
59104;BME280;51449;51.676;5.812;2024-03-08T02:07:18;101670.22;;;3.72;69.60
59104;BME280;51449;51.676;5.812;2024-03-08T02:09:40;101668.59;;;3.71;69.55
59104;BME280;51449;51.676;5.812;2024-03-08T02:12:03;101654.41;;;3.69;69.39
59104;BME280;51449;51.676;5.812;2024-03-08T02:14:29;101658.19;;;3.68;69.52
59104;BME280;51449;51.676;5.812;2024-03-08T02:16:52;101663.66;;;3.68;69.14
59104;BME280;51449;51.676;5.812;2024-03-08T02:19:15;101646.78;;;3.66;69.54
59104;BME280;51449;51.676;5.812;2024-03-08T02:21:37;101647.84;;;3.65;69.03
59104;BME280;51449;51.676;5.812;2024-03-08T02:23:59;101646.47;;;3.62;69.28
59104;BME280;51449;51.676;5.812;2024-03-08T02:26:21;101647.28;;;3.63;69.42
59104;BME280;51449;51.676;5.812;2024-03-08T02:28:44;101639.66;;;3.60;69.25
59104;BME280;51449;51.676;5.812;2024-03-08T02:31:06;101642.91;;;3.57;69.07
59104;BME280;51449;51.676;5.812;2024-03-08T02:33:29;101640.72;;;3.54;69.20
59104;BME280;51449;51.676;5.812;2024-03-08T02:35:51;101633.34;;;3.49;69.62
59104;BME280;51449;51.676;5.812;2024-03-08T02:38:15;101629.78;;;3.49;69.44
59104;BME280;51449;51.676;5.812;2024-03-08T02:40:38;101627.59;;;3.46;69.72
59104;BME280;51449;51.676;5.812;2024-03-08T02:43:00;101628.41;;;3.46;69.56
59104;BME280;51449;51.676;5.812;2024-03-08T02:45:22;101622.44;;;3.44;69.34
59104;BME280;51449;51.676;5.812;2024-03-08T02:47:44;101622.44;;;3.44;69.62
59104;BME280;51449;51.676;5.812;2024-03-08T02:50:07;101617.25;;;3.42;69.38
59104;BME280;51449;51.676;5.812;2024-03-08T02:52:29;101622.69;;;3.42;69.19
59104;BME280;51449;51.676;5.812;2024-03-08T02:54:52;101621.31;;;3.40;69.07
59104;BME280;51449;51.676;5.812;2024-03-08T02:57:14;101617.22;;;3.37;69.22
59104;BME280;51449;51.676;5.812;2024-03-08T02:59:37;101613.94;;;3.35;69.43
59104;BME280;51449;51.676;5.812;2024-03-08T03:02:01;101615.28;;;3.33;69.50
59104;BME280;51449;51.676;5.812;2024-03-08T03:04:23;101614.47;;;3.32;69.50
59104;BME280;51449;51.676;5.812;2024-03-08T03:06:45;101610.09;;;3.31;69.44
59104;BME280;51449;51.676;5.812;2024-03-08T03:09:07;101603.03;;;3.30;69.23
59104;BME280;51449;51.676;5.812;2024-03-08T03:11:29;101604.13;;;3.29;69.68
59104;BME280;51449;51.676;5.812;2024-03-08T03:13:51;101598.94;;;3.28;69.45
59104;BME280;51449;51.676;5.812;2024-03-08T03:16:20;101599.19;;;3.26;69.82
59104;BME280;51449;51.676;5.812;2024-03-08T03:18:42;101591.56;;;3.23;69.71
59104;BME280;51449;51.676;5.812;2024-03-08T03:21:04;101589.94;;;3.22;69.72
59104;BME280;51449;51.676;5.812;2024-03-08T03:23:29;101597.25;;;3.21;69.36
59104;BME280;51449;51.676;5.812;2024-03-08T03:25:54;101600.81;;;3.22;69.68
59104;BME280;51449;51.676;5.812;2024-03-08T03:28:18;101588.28;;;3.21;69.36
59104;BME280;51449;51.676;5.812;2024-03-08T03:30:46;101588.00;;;3.17;69.26
59104;BME280;51449;51.676;5.812;2024-03-08T03:33:08;101588.78;;;3.13;69.78
59104;BME280;51449;51.676;5.812;2024-03-08T03:35:32;101591.78;;;3.11;69.63
59104;BME280;51449;51.676;5.812;2024-03-08T03:37:55;101592.06;;;3.10;69.49
59104;BME280;51449;51.676;5.812;2024-03-08T03:40:35;101592.06;;;3.10;69.71
59104;BME280;51449;51.676;5.812;2024-03-08T03:42:57;101591.22;;;3.09;69.77
59104;BME280;51449;51.676;5.812;2024-03-08T03:45:20;101585.22;;;3.07;69.67
59104;BME280;51449;51.676;5.812;2024-03-08T03:47:42;101581.66;;;3.07;69.60
59104;BME280;51449;51.676;5.812;2024-03-08T03:50:06;101581.66;;;3.07;69.58
59104;BME280;51449;51.676;5.812;2024-03-08T03:52:28;101577.31;;;3.06;69.35
59104;BME280;51449;51.676;5.812;2024-03-08T03:54:50;101573.22;;;3.03;69.37
59104;BME280;51449;51.676;5.812;2024-03-08T03:57:12;101569.94;;;3.01;69.35
59104;BME280;51449;51.676;5.812;2024-03-08T03:59:34;101574.56;;;3.00;69.17
59104;BME280;51449;51.676;5.812;2024-03-08T04:01:55;101573.75;;;3.00;69.18
59104;BME280;51449;51.676;5.812;2024-03-08T04:04:17;101576.75;;;2.98;69.20
59104;BME280;51449;51.676;5.812;2024-03-08T04:06:39;101577.81;;;2.97;69.28
59104;BME280;51449;51.676;5.812;2024-03-08T04:09:01;101569.09;;;2.95;69.18
59104;BME280;51449;51.676;5.812;2024-03-08T04:11:23;101574.81;;;2.94;69.41
59104;BME280;51449;51.676;5.812;2024-03-08T04:13:45;101563.66;;;2.90;69.37
59104;BME280;51449;51.676;5.812;2024-03-08T04:16:07;101567.44;;;2.89;69.20
59104;BME280;51449;51.676;5.812;2024-03-08T04:18:29;101557.63;;;2.88;69.41
59104;BME280;51449;51.676;5.812;2024-03-08T04:20:51;101558.72;;;2.87;69.10
59104;BME280;51449;51.676;5.812;2024-03-08T04:23:13;101555.97;;;2.87;69.11
59104;BME280;51449;51.676;5.812;2024-03-08T04:25:35;101555.72;;;2.84;69.32
59104;BME280;51449;51.676;5.812;2024-03-08T04:27:57;101553.53;;;2.81;69.74
59104;BME280;51449;51.676;5.812;2024-03-08T04:30:19;101556.25;;;2.81;69.63
59104;BME280;51449;51.676;5.812;2024-03-08T04:32:42;101551.31;;;2.77;69.57
59104;BME280;51449;51.676;5.812;2024-03-08T04:35:05;101550.75;;;2.75;69.47
59104;BME280;51449;51.676;5.812;2024-03-08T04:37:27;101542.03;;;2.73;69.58
59104;BME280;51449;51.676;5.812;2024-03-08T04:39:51;101551.03;;;2.74;69.50
59104;BME280;51449;51.676;5.812;2024-03-08T04:42:13;101551.28;;;2.72;69.49
59104;BME280;51449;51.676;5.812;2024-03-08T04:44:37;101551.84;;;2.74;69.70
59104;BME280;51449;51.676;5.812;2024-03-08T04:46:59;101548.31;;;2.74;69.75
59104;BME280;51449;51.676;5.812;2024-03-08T04:49:22;101538.47;;;2.73;69.78
59104;BME280;51449;51.676;5.812;2024-03-08T04:51:44;101537.94;;;2.71;69.56
59104;BME280;51449;51.676;5.812;2024-03-08T04:54:06;101548.00;;;2.70;69.64
59104;BME280;51449;51.676;5.812;2024-03-08T04:56:28;101539.31;;;2.68;70.29
59104;BME280;51449;51.676;5.812;2024-03-08T04:58:50;101528.66;;;2.67;69.36
59104;BME280;51449;51.676;5.812;2024-03-08T05:01:12;101531.63;;;2.65;69.98
59104;BME280;51449;51.676;5.812;2024-03-08T05:03:34;101528.91;;;2.65;70.11
59104;BME280;51449;51.676;5.812;2024-03-08T05:05:56;101523.47;;;2.65;69.93
59104;BME280;51449;51.676;5.812;2024-03-08T05:08:18;101522.66;;;2.65;69.80
59104;BME280;51449;51.676;5.812;2024-03-08T05:10:41;101525.69;;;2.68;69.72
59104;BME280;51449;51.676;5.812;2024-03-08T05:13:03;101517.53;;;2.68;69.94
59104;BME280;51449;51.676;5.812;2024-03-08T05:15:25;101521.56;;;2.66;69.76
59104;BME280;51449;51.676;5.812;2024-03-08T05:17:47;101512.88;;;2.64;70.24
59104;BME280;51449;51.676;5.812;2024-03-08T05:20:09;101519.38;;;2.63;69.85
59104;BME280;51449;51.676;5.812;2024-03-08T05:22:34;101514.22;;;2.61;69.74
59104;BME280;51449;51.676;5.812;2024-03-08T05:24:56;101518.28;;;2.59;69.87
59104;BME280;51449;51.676;5.812;2024-03-08T05:27:17;101513.91;;;2.57;70.04
59104;BME280;51449;51.676;5.812;2024-03-08T05:29:39;101516.06;;;2.55;69.75
59104;BME280;51449;51.676;5.812;2024-03-08T05:32:01;101514.44;;;2.54;69.75
59104;BME280;51449;51.676;5.812;2024-03-08T05:34:24;101511.97;;;2.53;69.66
59104;BME280;51449;51.676;5.812;2024-03-08T05:36:48;101515.00;;;2.51;69.98
59104;BME280;51449;51.676;5.812;2024-03-08T05:39:17;101516.03;;;2.45;70.23
59104;BME280;51449;51.676;5.812;2024-03-08T05:41:39;101508.97;;;2.44;70.10
59104;BME280;51449;51.676;5.812;2024-03-08T05:44:02;101501.84;;;2.43;70.42
59104;BME280;51449;51.676;5.812;2024-03-08T05:46:24;101499.41;;;2.42;70.25
59104;BME280;51449;51.676;5.812;2024-03-08T05:48:46;101496.94;;;2.40;70.01
59104;BME280;51449;51.676;5.812;2024-03-08T05:51:08;101499.69;;;2.40;70.25
59104;BME280;51449;51.676;5.812;2024-03-08T05:53:30;101504.03;;;2.41;70.13
59104;BME280;51449;51.676;5.812;2024-03-08T05:55:53;101495.03;;;2.41;70.45
59104;BME280;51449;51.676;5.812;2024-03-08T05:58:15;101496.41;;;2.38;70.17
59104;BME280;51449;51.676;5.812;2024-03-08T06:00:37;101493.66;;;2.38;70.01
59104;BME280;51449;51.676;5.812;2024-03-08T06:02:59;101494.22;;;2.40;70.35
59104;BME280;51449;51.676;5.812;2024-03-08T06:05:21;101495.84;;;2.41;70.13
59104;BME280;51449;51.676;5.812;2024-03-08T06:07:46;101492.88;;;2.43;70.38
59104;BME280;51449;51.676;5.812;2024-03-08T06:10:11;101489.34;;;2.42;70.32
59104;BME280;51449;51.676;5.812;2024-03-08T06:12:36;101489.34;;;2.42;69.92
59104;BME280;51449;51.676;5.812;2024-03-08T06:15:04;101488.78;;;2.40;70.59
59104;BME280;51449;51.676;5.812;2024-03-08T06:17:26;101481.72;;;2.39;70.26
59104;BME280;51449;51.676;5.812;2024-03-08T06:19:48;101483.09;;;2.42;70.50
59104;BME280;51449;51.676;5.812;2024-03-08T06:22:11;101489.34;;;2.42;70.43
59104;BME280;51449;51.676;5.812;2024-03-08T06:24:33;101479.81;;;2.40;70.45
59104;BME280;51449;51.676;5.812;2024-03-08T06:26:57;101486.63;;;2.42;70.41
59104;BME280;51449;51.676;5.812;2024-03-08T06:29:19;101481.75;;;2.44;70.71
59104;BME280;51449;51.676;5.812;2024-03-08T06:31:41;101486.66;;;2.47;70.31
59104;BME280;51449;51.676;5.812;2024-03-08T06:34:03;101478.50;;;2.47;70.72
59104;BME280;51449;51.676;5.812;2024-03-08T06:36:25;101482.34;;;2.51;70.72
59104;BME280;51449;51.676;5.812;2024-03-08T06:38:50;101476.06;;;2.51;70.61
59104;BME280;51449;51.676;5.812;2024-03-08T06:41:14;101480.16;;;2.53;70.53
59104;BME280;51449;51.676;5.812;2024-03-08T06:43:39;101476.38;;;2.54;70.37
59104;BME280;51449;51.676;5.812;2024-03-08T06:46:01;101467.41;;;2.54;70.23
59104;BME280;51449;51.676;5.812;2024-03-08T06:48:25;101468.25;;;2.60;70.37
59104;BME280;51449;51.676;5.812;2024-03-08T06:50:47;101466.66;;;2.69;70.61
59104;BME280;51449;51.676;5.812;2024-03-08T06:53:09;101465.66;;;2.90;70.39
59104;BME280;51449;51.676;5.812;2024-03-08T06:55:31;101455.09;;;3.14;69.50
59104;BME280;51449;51.676;5.812;2024-03-08T06:57:54;101451.06;;;3.32;68.72
59104;BME280;51449;51.676;5.812;2024-03-08T07:00:16;101460.06;;;3.38;68.74
59104;BME280;51449;51.676;5.812;2024-03-08T07:02:40;101462.81;;;3.48;68.42
59104;BME280;51449;51.676;5.812;2024-03-08T07:05:03;101454.91;;;3.67;67.76
59104;BME280;51449;51.676;5.812;2024-03-08T07:07:25;101456.00;;;3.97;67.32
59104;BME280;51449;51.676;5.812;2024-03-08T07:09:48;101454.09;;;4.07;66.69
59104;BME280;51449;51.676;5.812;2024-03-08T07:12:10;101456.28;;;4.05;66.97
59104;BME280;51449;51.676;5.812;2024-03-08T07:14:36;101455.75;;;3.93;66.88
59104;BME280;51449;51.676;5.812;2024-03-08T07:17:02;101456.56;;;3.83;67.39
59104;BME280;51449;51.676;5.812;2024-03-08T07:19:27;101450.03;;;3.74;68.02
59104;BME280;51449;51.676;5.812;2024-03-08T07:21:50;101454.38;;;3.70;68.46
59104;BME280;51449;51.676;5.812;2024-03-08T07:24:11;101451.09;;;3.68;68.38
59104;BME280;51449;51.676;5.812;2024-03-08T07:26:36;101452.19;;;3.72;68.32
59104;BME280;51449;51.676;5.812;2024-03-08T07:29:00;101444.31;;;3.76;68.65
59104;BME280;51449;51.676;5.812;2024-03-08T07:31:22;101445.38;;;3.80;68.41
59104;BME280;51449;51.676;5.812;2024-03-08T07:33:56;101444.56;;;3.84;68.59
59104;BME280;51449;51.676;5.812;2024-03-08T07:36:18;101448.38;;;3.89;68.26
59104;BME280;51449;51.676;5.812;2024-03-08T07:38:40;101441.81;;;3.95;68.06
59104;BME280;51449;51.676;5.812;2024-03-08T07:41:02;101442.66;;;4.00;68.03
59104;BME280;51449;51.676;5.812;2024-03-08T07:43:26;101438.56;;;4.08;67.46
59104;BME280;51449;51.676;5.812;2024-03-08T07:45:48;101433.34;;;4.17;67.39
59104;BME280;51449;51.676;5.812;2024-03-08T07:48:10;101432.53;;;4.21;67.12
59104;BME280;51449;51.676;5.812;2024-03-08T07:50:32;101428.97;;;4.26;66.66
59104;BME280;51449;51.676;5.812;2024-03-08T07:52:55;101428.41;;;4.34;66.58
59104;BME280;51449;51.676;5.812;2024-03-08T07:55:16;101425.34;;;4.46;66.45
59104;BME280;51449;51.676;5.812;2024-03-08T07:57:38;101414.97;;;4.53;66.76
59104;BME280;51449;51.676;5.812;2024-03-08T08:00:00;101416.31;;;4.61;66.45
59104;BME280;51449;51.676;5.812;2024-03-08T08:02:29;101411.09;;;4.69;66.55
59104;BME280;51449;51.676;5.812;2024-03-08T08:04:50;101412.16;;;4.79;65.85
59104;BME280;51449;51.676;5.812;2024-03-08T08:07:12;101404.47;;;4.86;65.83
59104;BME280;51449;51.676;5.812;2024-03-08T08:09:36;101400.56;;;4.97;65.64
59104;BME280;51449;51.676;5.812;2024-03-08T08:11:58;101399.47;;;5.03;65.48
59104;BME280;51449;51.676;5.812;2024-03-08T08:14:20;101396.38;;;5.15;65.83
59104;BME280;51449;51.676;5.812;2024-03-08T08:16:42;101394.44;;;5.21;64.46
59104;BME280;51449;51.676;5.812;2024-03-08T08:19:06;101392.19;;;5.28;64.56
59104;BME280;51449;51.676;5.812;2024-03-08T08:21:29;101387.50;;;5.33;64.48
59104;BME280;51449;51.676;5.812;2024-03-08T08:23:50;101388.81;;;5.41;64.24
59104;BME280;51449;51.676;5.812;2024-03-08T08:26:12;101383.03;;;5.48;63.88
59104;BME280;51449;51.676;5.812;2024-03-08T08:28:34;101377.25;;;5.54;64.03
59104;BME280;51449;51.676;5.812;2024-03-08T08:30:56;101382.59;;;5.65;64.41
59104;BME280;51449;51.676;5.812;2024-03-08T08:33:18;101368.84;;;5.75;63.89
59104;BME280;51449;51.676;5.812;2024-03-08T08:35:41;101368.47;;;5.87;63.49
59104;BME280;51449;51.676;5.812;2024-03-08T08:38:07;101362.66;;;5.93;62.44
59104;BME280;51449;51.676;5.812;2024-03-08T08:40:29;101356.00;;;6.05;62.82
59104;BME280;51449;51.676;5.812;2024-03-08T08:42:53;101363.88;;;6.11;62.57
59104;BME280;51449;51.676;5.812;2024-03-08T08:45:15;101361.91;;;6.17;62.40
59104;BME280;51449;51.676;5.812;2024-03-08T08:47:41;101359.31;;;6.26;62.63
59104;BME280;51449;51.676;5.812;2024-03-08T08:50:05;101363.06;;;6.35;62.10
59104;BME280;51449;51.676;5.812;2024-03-08T08:52:28;101356.13;;;6.42;61.87
59104;BME280;51449;51.676;5.812;2024-03-08T08:54:50;101356.28;;;6.51;61.80
59104;BME280;51449;51.676;5.812;2024-03-08T08:57:12;101356.16;;;6.61;61.38
59104;BME280;51449;51.676;5.812;2024-03-08T08:59:35;101341.50;;;6.71;61.43
59104;BME280;51449;51.676;5.812;2024-03-08T09:02:03;101344.09;;;6.81;61.58
59104;BME280;51449;51.676;5.812;2024-03-08T09:04:28;101341.66;;;6.99;61.66
59104;BME280;51449;51.676;5.812;2024-03-08T09:06:50;101337.34;;;7.12;61.16
59104;BME280;51449;51.676;5.812;2024-03-08T09:09:12;101333.94;;;7.20;60.42
59104;BME280;51449;51.676;5.812;2024-03-08T09:11:35;101327.78;;;7.28;59.88
59104;BME280;51449;51.676;5.812;2024-03-08T09:13:57;101332.28;;;7.38;60.20
59104;BME280;51449;51.676;5.812;2024-03-08T09:16:19;101333.44;;;7.50;59.83
59104;BME280;51449;51.676;5.812;2024-03-08T09:18:41;101321.47;;;7.60;59.39
59104;BME280;51449;51.676;5.812;2024-03-08T09:21:03;101328.13;;;7.73;59.71
59104;BME280;51449;51.676;5.812;2024-03-08T09:23:27;101315.03;;;7.84;59.09
59104;BME280;51449;51.676;5.812;2024-03-08T09:25:51;101319.69;;;7.97;59.12
59104;BME280;51449;51.676;5.812;2024-03-08T09:28:13;101318.91;;;8.10;58.59
59104;BME280;51449;51.676;5.812;2024-03-08T09:30:35;101305.59;;;8.18;57.72
59104;BME280;51449;51.676;5.812;2024-03-08T09:32:59;101306.00;;;8.25;57.26
59104;BME280;51449;51.676;5.812;2024-03-08T09:35:21;101290.44;;;8.34;57.33
59104;BME280;51449;51.676;5.812;2024-03-08T09:37:43;101287.50;;;8.44;57.27
59104;BME280;51449;51.676;5.812;2024-03-08T09:40:05;101284.31;;;8.51;56.21
59104;BME280;51449;51.676;5.812;2024-03-08T09:42:32;101283.72;;;8.54;55.62
59104;BME280;51449;51.676;5.812;2024-03-08T09:44:54;101278.09;;;8.59;55.58
59104;BME280;51449;51.676;5.812;2024-03-08T09:47:17;101276.53;;;8.67;55.54
59104;BME280;51449;51.676;5.812;2024-03-08T09:49:41;101276.31;;;8.77;55.61
59104;BME280;51449;51.676;5.812;2024-03-08T09:52:03;101262.94;;;8.84;55.60
59104;BME280;51449;51.676;5.812;2024-03-08T09:54:26;101266.88;;;8.92;55.33
59104;BME280;51449;51.676;5.812;2024-03-08T09:56:51;101257.91;;;9.00;55.75
59104;BME280;51449;51.676;5.812;2024-03-08T09:59:13;101246.97;;;9.09;55.25
59104;BME280;51449;51.676;5.812;2024-03-08T10:02:01;101234.59;;;9.20;55.06
59104;BME280;51449;51.676;5.812;2024-03-08T10:04:24;101234.19;;;9.35;55.22
59104;BME280;51449;51.676;5.812;2024-03-08T10:06:47;101227.47;;;9.50;54.74
59104;BME280;51449;51.676;5.812;2024-03-08T10:09:10;101228.00;;;9.61;54.15
59104;BME280;51449;51.676;5.812;2024-03-08T10:11:32;101224.28;;;9.65;52.48
59104;BME280;51449;51.676;5.812;2024-03-08T10:13:54;101215.28;;;9.74;53.54
59104;BME280;51449;51.676;5.812;2024-03-08T10:16:17;101215.28;;;9.82;53.09
59104;BME280;51449;51.676;5.812;2024-03-08T10:18:38;101199.94;;;9.90;52.35
59104;BME280;51449;51.676;5.812;2024-03-08T10:21:06;101197.34;;;9.94;52.10
59104;BME280;51449;51.676;5.812;2024-03-08T10:23:31;101188.28;;;10.02;51.82
59104;BME280;51449;51.676;5.812;2024-03-08T10:25:55;101191.22;;;10.05;51.40
59104;BME280;51449;51.676;5.812;2024-03-08T10:28:19;101186.22;;;10.16;51.81
59104;BME280;51449;51.676;5.812;2024-03-08T10:30:47;101185.44;;;10.24;51.27
59104;BME280;51449;51.676;5.812;2024-03-08T10:33:09;101174.78;;;10.32;50.74
59104;BME280;51449;51.676;5.812;2024-03-08T10:35:31;101176.69;;;10.31;50.70
59104;BME280;51449;51.676;5.812;2024-03-08T10:37:56;101169.25;;;10.40;50.45
59104;BME280;51449;51.676;5.812;2024-03-08T10:40:26;101167.63;;;10.48;51.21
59104;BME280;51449;51.676;5.812;2024-03-08T10:42:57;101171.06;;;10.54;50.04
59104;BME280;51449;51.676;5.812;2024-03-08T10:45:37;101157.28;;;10.54;49.29
59104;BME280;51449;51.676;5.812;2024-03-08T10:48:28;101157.25;;;10.62;49.78
59104;BME280;51449;51.676;5.812;2024-03-08T10:51:04;101149.97;;;10.66;49.33
59104;BME280;51449;51.676;5.812;2024-03-08T10:53:27;101144.94;;;10.68;49.13
59104;BME280;51449;51.676;5.812;2024-03-08T10:55:53;101152.84;;;10.70;48.85
59104;BME280;51449;51.676;5.812;2024-03-08T10:58:21;101142.66;;;10.70;48.90
59104;BME280;51449;51.676;5.812;2024-03-08T11:00:44;101150.41;;;10.77;49.30
59104;BME280;51449;51.676;5.812;2024-03-08T11:03:06;101149.13;;;10.83;49.37
59104;BME280;51449;51.676;5.812;2024-03-08T11:05:35;101132.53;;;10.92;49.46
59104;BME280;51449;51.676;5.812;2024-03-08T11:08:03;101137.38;;;11.04;49.05
59104;BME280;51449;51.676;5.812;2024-03-08T11:10:27;101134.78;;;11.07;48.13
59104;BME280;51449;51.676;5.812;2024-03-08T11:12:49;101126.34;;;11.12;48.79
59104;BME280;51449;51.676;5.812;2024-03-08T11:15:12;101118.38;;;11.20;48.68
59104;BME280;51449;51.676;5.812;2024-03-08T11:17:45;101116.53;;;11.24;48.30
59104;BME280;51449;51.676;5.812;2024-03-08T11:20:17;101120.75;;;11.30;48.32
59104;BME280;51449;51.676;5.812;2024-03-08T11:22:54;101100.28;;;11.31;47.32
59104;BME280;51449;51.676;5.812;2024-03-08T11:25:39;101104.31;;;11.33;47.40
59104;BME280;51449;51.676;5.812;2024-03-08T11:28:12;101096.22;;;11.37;47.17
59104;BME280;51449;51.676;5.812;2024-03-08T11:33:30;101085.59;;;11.48;47.13
59104;BME280;51449;51.676;5.812;2024-03-08T11:36:02;101072.88;;;11.55;47.49
59104;BME280;51449;51.676;5.812;2024-03-08T11:38:29;101077.56;;;11.64;46.73
59104;BME280;51449;51.676;5.812;2024-03-08T11:40:53;101070.88;;;11.65;46.41
59104;BME280;51449;51.676;5.812;2024-03-08T11:43:16;101064.09;;;11.62;46.03
59104;BME280;51449;51.676;5.812;2024-03-08T11:45:38;101063.75;;;11.64;46.29
59104;BME280;51449;51.676;5.812;2024-03-08T11:48:03;101065.03;;;11.66;46.75
59104;BME280;51449;51.676;5.812;2024-03-08T11:50:25;101063.56;;;11.69;46.55
59104;BME280;51449;51.676;5.812;2024-03-08T11:52:47;101049.88;;;11.72;46.60
59104;BME280;51449;51.676;5.812;2024-03-08T11:55:11;101057.63;;;11.79;46.03
59104;BME280;51449;51.676;5.812;2024-03-08T11:57:34;101052.09;;;11.79;46.12
59104;BME280;51449;51.676;5.812;2024-03-08T11:59:58;101046.91;;;11.77;46.06
59104;BME280;51449;51.676;5.812;2024-03-08T12:02:29;101053.25;;;11.78;45.50
59104;BME280;51449;51.676;5.812;2024-03-08T12:04:58;101041.06;;;11.79;45.29
59104;BME280;51449;51.676;5.812;2024-03-08T12:07:22;101035.22;;;11.81;45.48
59104;BME280;51449;51.676;5.812;2024-03-08T12:10:20;101030.81;;;11.79;45.42
59104;BME280;51449;51.676;5.812;2024-03-08T12:12:45;101037.31;;;11.84;45.25
59104;BME280;51449;51.676;5.812;2024-03-08T12:15:09;101026.72;;;11.86;45.44
59104;BME280;51449;51.676;5.812;2024-03-08T12:17:32;101019.06;;;11.91;45.60
59104;BME280;51449;51.676;5.812;2024-03-08T12:19:55;101019.06;;;11.91;45.05
59104;BME280;51449;51.676;5.812;2024-03-08T12:22:17;101021.50;;;11.93;44.87
59104;BME280;51449;51.676;5.812;2024-03-08T12:24:39;101018.19;;;11.99;45.06
59104;BME280;51449;51.676;5.812;2024-03-08T12:27:17;101017.53;;;12.03;44.36
59104;BME280;51449;51.676;5.812;2024-03-08T12:29:41;101013.13;;;12.02;44.52
59104;BME280;51449;51.676;5.812;2024-03-08T12:32:03;101005.31;;;12.04;44.81
59104;BME280;51449;51.676;5.812;2024-03-08T12:34:27;100992.47;;;12.08;45.00
59104;BME280;51449;51.676;5.812;2024-03-08T12:36:51;100999.25;;;12.10;44.38
59104;BME280;51449;51.676;5.812;2024-03-08T12:39:18;100995.69;;;12.10;44.00
59104;BME280;51449;51.676;5.812;2024-03-08T12:41:49;100989.00;;;12.11;44.47
59104;BME280;51449;51.676;5.812;2024-03-08T12:44:14;100985.22;;;12.15;44.09